createdAt,value
2018-08-11T00:00:35.881Z,20.53
2018-08-11T00:01:35.808Z,20.54
2018-08-11T00:02:35.857Z,20.53
2018-08-11T00:03:35.908Z,20.52
2018-08-11T00:04:35.903Z,20.51
2018-08-11T00:05:35.865Z,20.47
2018-08-11T00:06:35.826Z,20.47
2018-08-11T00:07:36.079Z,20.44
2018-08-11T00:08:35.984Z,20.45
2018-08-11T00:09:36.001Z,20.42
2018-08-11T00:10:35.810Z,20.42
2018-08-11T00:11:35.836Z,20.41
2018-08-11T00:12:35.941Z,20.4
2018-08-11T00:13:35.999Z,20.38
2018-08-11T00:14:35.810Z,20.37
2018-08-11T00:15:35.842Z,20.36
2018-08-11T00:16:35.836Z,20.34
2018-08-11T00:17:35.831Z,20.31
2018-08-11T00:18:35.832Z,20.29
2018-08-11T00:19:35.964Z,20.27
2018-08-11T00:20:36.174Z,20.28
2018-08-11T00:21:35.858Z,20.25
2018-08-11T00:22:35.891Z,20.25
2018-08-11T00:23:35.856Z,20.24
2018-08-11T00:24:35.862Z,20.22
2018-08-11T00:25:35.853Z,20.22
2018-08-11T00:26:35.820Z,20.2
2018-08-11T00:27:35.850Z,20.21
2018-08-11T00:28:35.906Z,20.2
2018-08-11T00:29:35.937Z,20.18
2018-08-11T00:30:35.890Z,20.16
2018-08-11T00:31:35.825Z,20.13
2018-08-11T00:32:35.775Z,20.13
2018-08-11T00:33:35.848Z,20.12
2018-08-11T00:34:35.836Z,20.11
2018-08-11T00:35:35.822Z,20.09
2018-08-11T00:36:36.639Z,20.07
2018-08-11T00:37:35.879Z,20.05
2018-08-11T00:38:35.902Z,20.03
2018-08-11T00:39:35.813Z,20
2018-08-11T00:40:35.886Z,19.99
2018-08-11T00:41:35.969Z,19.99
2018-08-11T00:42:35.821Z,19.93
2018-08-11T00:43:36.025Z,19.92
2018-08-11T00:44:35.853Z,19.92
2018-08-11T00:45:35.769Z,19.88
2018-08-11T00:46:35.933Z,19.87
2018-08-11T00:47:35.823Z,19.86
2018-08-11T00:48:35.775Z,19.81
2018-08-11T00:49:36.769Z,19.81
2018-08-11T00:50:35.802Z,19.79
2018-08-11T00:51:35.848Z,19.79
2018-08-11T00:52:35.831Z,19.77
2018-08-11T00:53:35.830Z,19.74
2018-08-11T00:54:35.789Z,19.73
2018-08-11T00:55:35.837Z,19.69
2018-08-11T00:56:35.820Z,19.69
2018-08-11T00:57:35.819Z,19.68
2018-08-11T00:58:35.783Z,19.7
2018-08-11T00:59:35.780Z,19.7
2018-08-11T01:00:35.819Z,19.68
2018-08-11T01:01:35.818Z,19.68
2018-08-11T01:02:35.816Z,19.67
2018-08-11T01:03:35.822Z,19.67
2018-08-11T01:04:35.789Z,19.67
2018-08-11T01:05:35.792Z,19.62
2018-08-11T01:06:35.790Z,19.59
2018-08-11T01:07:35.820Z,19.55
2018-08-11T01:08:35.819Z,19.55
2018-08-11T01:09:35.804Z,19.55
2018-08-11T01:10:35.831Z,19.54
2018-08-11T01:11:35.921Z,19.54
2018-08-11T01:12:35.814Z,19.51
2018-08-11T01:13:35.833Z,19.49
2018-08-11T01:14:35.904Z,19.49
2018-08-11T01:15:36.143Z,19.49
2018-08-11T01:16:35.841Z,19.47
2018-08-11T01:17:35.961Z,19.45
2018-08-11T01:18:35.997Z,19.48
2018-08-11T01:19:35.924Z,19.45
2018-08-11T01:20:35.893Z,19.47
2018-08-11T01:21:35.816Z,19.42
2018-08-11T01:22:35.939Z,19.42
2018-08-11T01:23:35.919Z,19.43
2018-08-11T01:24:35.934Z,19.41
2018-08-11T01:25:35.835Z,19.41
2018-08-11T01:26:35.822Z,19.4
2018-08-11T01:27:35.958Z,19.4
2018-08-11T01:28:35.780Z,19.4
2018-08-11T01:29:35.880Z,19.4
2018-08-11T01:30:36.000Z,19.4
2018-08-11T01:31:35.900Z,19.4
2018-08-11T01:32:36.219Z,19.41
2018-08-11T01:33:35.834Z,19.42
2018-08-11T01:34:35.978Z,19.41
2018-08-11T01:35:36.073Z,19.4
2018-08-11T01:36:35.902Z,19.39
2018-08-11T01:37:35.827Z,19.36
2018-08-11T01:38:36.273Z,19.35
2018-08-11T01:39:35.780Z,19.37
2018-08-11T01:40:35.814Z,19.38
2018-08-11T01:41:35.810Z,19.38
2018-08-11T01:42:35.840Z,19.38
2018-08-11T01:43:35.852Z,19.39
2018-08-11T01:44:35.823Z,19.39
2018-08-11T01:45:35.847Z,19.38
2018-08-11T01:46:35.839Z,19.38
2018-08-11T01:47:35.863Z,19.39
2018-08-11T01:48:35.842Z,19.38
2018-08-11T01:49:35.791Z,19.37
2018-08-11T01:50:36.129Z,19.35
2018-08-11T01:51:35.824Z,19.36
2018-08-11T01:52:35.829Z,19.32
2018-08-11T01:53:35.876Z,19.32
2018-08-11T01:54:35.964Z,19.3
2018-08-11T01:55:35.832Z,19.31
2018-08-11T01:56:35.924Z,19.31
2018-08-11T01:57:35.813Z,19.3
2018-08-11T01:58:36.116Z,19.31
2018-08-11T01:59:35.782Z,19.28
2018-08-11T02:00:35.940Z,19.29
2018-08-11T02:01:35.819Z,19.26
2018-08-11T02:02:35.806Z,19.27
2018-08-11T02:03:35.881Z,19.24
2018-08-11T02:04:36.272Z,19.25
2018-08-11T02:05:35.848Z,19.25
2018-08-11T02:06:35.841Z,19.22
2018-08-11T02:07:35.872Z,19.24
2018-08-11T02:08:35.768Z,19.23
2018-08-11T02:09:35.808Z,19.23
2018-08-11T02:10:35.857Z,19.23
2018-08-11T02:11:35.839Z,19.2
2018-08-11T02:12:35.786Z,19.21
2018-08-11T02:13:35.861Z,19.2
2018-08-11T02:14:35.819Z,19.19
2018-08-11T02:15:35.841Z,19.2
2018-08-11T02:16:35.799Z,19.19
2018-08-11T02:17:36.110Z,19.19
2018-08-11T02:18:35.896Z,19.19
2018-08-11T02:19:35.793Z,19.18
2018-08-11T02:20:35.824Z,19.18
2018-08-11T02:21:35.822Z,19.16
2018-08-11T02:22:35.864Z,19.13
2018-08-11T02:23:35.920Z,19.11
2018-08-11T02:24:36.113Z,19.11
2018-08-11T02:25:35.839Z,19.1
2018-08-11T02:26:35.943Z,19.08
2018-08-11T02:27:35.774Z,19.07
2018-08-11T02:28:35.841Z,19.04
2018-08-11T02:29:35.924Z,18.99
2018-08-11T02:30:35.828Z,18.97
2018-08-11T02:31:35.835Z,18.94
2018-08-11T02:32:35.851Z,18.95
2018-08-11T02:33:35.940Z,18.93
2018-08-11T02:34:35.969Z,18.92
2018-08-11T02:35:36.025Z,18.92
2018-08-11T02:36:35.886Z,18.9
2018-08-11T02:37:35.832Z,18.85
2018-08-11T02:38:35.907Z,18.84
2018-08-11T02:39:36.151Z,18.81
2018-08-11T02:40:35.809Z,18.76
2018-08-11T02:41:35.902Z,18.73
2018-08-11T02:42:35.948Z,18.72
2018-08-11T02:43:36.095Z,18.67
2018-08-11T02:44:35.976Z,18.66
2018-08-11T02:45:35.941Z,18.62
2018-08-11T02:46:35.936Z,18.62
2018-08-11T02:47:35.901Z,18.59
2018-08-11T02:48:35.931Z,18.56
2018-08-11T02:49:36.012Z,18.53
2018-08-11T02:50:36.075Z,18.5
2018-08-11T02:51:35.813Z,18.48
2018-08-11T02:52:35.876Z,18.47
2018-08-11T02:53:36.064Z,18.46
2018-08-11T02:54:35.852Z,18.49
2018-08-11T02:55:36.007Z,18.47
2018-08-11T02:56:35.875Z,18.5
2018-08-11T02:57:35.936Z,18.5
2018-08-11T02:58:36.053Z,18.51
2018-08-11T02:59:35.924Z,18.52
2018-08-11T03:00:35.857Z,18.51
2018-08-11T03:01:35.832Z,18.5
2018-08-11T03:02:37.787Z,18.48
2018-08-11T03:03:35.954Z,18.45
2018-08-11T03:04:35.837Z,18.45
2018-08-11T03:05:35.795Z,18.45
2018-08-11T03:06:35.969Z,18.46
2018-08-11T03:07:35.894Z,18.5
2018-08-11T03:08:35.995Z,18.49
2018-08-11T03:09:35.832Z,18.46
2018-08-11T03:10:35.964Z,18.45
2018-08-11T03:11:35.834Z,18.41
2018-08-11T03:12:35.820Z,18.39
2018-08-11T03:13:35.925Z,18.35
2018-08-11T03:14:35.861Z,18.33
2018-08-11T03:15:35.884Z,18.32
2018-08-11T03:16:35.982Z,18.32
2018-08-11T03:17:35.850Z,18.31
2018-08-11T03:18:35.857Z,18.25
2018-08-11T03:19:35.882Z,18.25
2018-08-11T03:20:35.810Z,18.23
2018-08-11T03:21:35.884Z,18.23
2018-08-11T03:22:35.949Z,18.24
2018-08-11T03:23:35.832Z,18.22
2018-08-11T03:24:35.821Z,18.22
2018-08-11T03:25:35.764Z,18.22
2018-08-11T03:26:35.842Z,18.24
2018-08-11T03:27:35.819Z,18.22
2018-08-11T03:28:35.767Z,18.22
2018-08-11T03:29:35.909Z,18.21
2018-08-11T03:30:35.872Z,18.22
2018-08-11T03:31:35.860Z,18.24
2018-08-11T03:32:35.857Z,18.22
2018-08-11T03:33:35.829Z,18.23
2018-08-11T03:34:35.814Z,18.22
2018-08-11T03:35:35.780Z,18.24
2018-08-11T03:36:35.818Z,18.24
2018-08-11T03:37:35.805Z,18.25
2018-08-11T03:38:35.820Z,18.22
2018-08-11T03:39:35.814Z,18.23
2018-08-11T03:40:36.059Z,18.24
2018-08-11T03:41:35.794Z,18.24
2018-08-11T03:42:35.795Z,18.21
2018-08-11T03:43:35.855Z,18.23
2018-08-11T03:44:35.824Z,18.23
2018-08-11T03:45:35.924Z,18.23
2018-08-11T03:46:35.928Z,18.23
2018-08-11T03:47:35.833Z,18.23
2018-08-11T03:48:35.797Z,18.23
2018-08-11T03:49:35.878Z,18.23
2018-08-11T03:50:35.967Z,18.22
2018-08-11T03:51:35.760Z,18.22
2018-08-11T03:52:37.025Z,18.19
2018-08-11T03:53:35.840Z,18.2
2018-08-11T03:54:35.908Z,18.2
2018-08-11T03:55:35.844Z,18.17
2018-08-11T03:56:35.803Z,18.17
2018-08-11T03:57:35.857Z,18.15
2018-08-11T03:58:36.013Z,18.14
2018-08-11T03:59:35.870Z,18.14
2018-08-11T04:00:35.862Z,18.13
2018-08-11T04:01:35.985Z,18.14
2018-08-11T04:02:35.897Z,18.13
2018-08-11T04:03:35.853Z,18.1
2018-08-11T04:04:35.832Z,18.09
2018-08-11T04:05:35.834Z,18.11
2018-08-11T04:06:36.545Z,18.08
2018-08-11T04:07:35.825Z,18.1
2018-08-11T04:08:35.820Z,18.07
2018-08-11T04:09:35.938Z,18.1
2018-08-11T04:10:35.812Z,18.1
2018-08-11T04:11:35.813Z,18.08
2018-08-11T04:12:35.896Z,18.08
2018-08-11T04:13:35.820Z,18.08
2018-08-11T04:14:35.787Z,18.08
2018-08-11T04:15:35.948Z,18.1
2018-08-11T04:16:35.808Z,18.08
2018-08-11T04:17:35.811Z,18.08
2018-08-11T04:18:36.030Z,18.06
2018-08-11T04:19:35.814Z,18.04
2018-08-11T04:20:35.844Z,18.04
2018-08-11T04:21:35.912Z,18.01
2018-08-11T04:22:35.776Z,18.04
2018-08-11T04:23:35.812Z,18.01
2018-08-11T04:24:35.832Z,18.01
2018-08-11T04:25:35.929Z,18.01
2018-08-11T04:26:35.864Z,18
2018-08-11T04:27:35.844Z,18
2018-08-11T04:28:35.804Z,18
2018-08-11T04:29:35.844Z,17.95
2018-08-11T04:30:35.804Z,17.99
2018-08-11T04:31:35.798Z,17.99
2018-08-11T04:32:35.876Z,17.98
2018-08-11T04:33:35.882Z,17.99
2018-08-11T04:34:35.818Z,18
2018-08-11T04:35:36.064Z,17.99
2018-08-11T04:36:35.827Z,17.99
2018-08-11T04:37:35.791Z,17.99
2018-08-11T04:38:35.832Z,18
2018-08-11T04:39:35.824Z,17.97
2018-08-11T04:40:35.777Z,17.99
2018-08-11T04:41:35.792Z,18
2018-08-11T04:42:35.903Z,17.97
2018-08-11T04:43:35.830Z,17.99
2018-08-11T04:44:35.797Z,17.99
2018-08-11T04:45:35.792Z,17.99
2018-08-11T04:46:35.810Z,17.97
2018-08-11T04:47:35.809Z,17.95
2018-08-11T04:48:35.811Z,17.95
2018-08-11T04:49:35.871Z,17.96
2018-08-11T04:50:35.809Z,17.98
2018-08-11T04:51:35.782Z,17.96
2018-08-11T04:52:35.816Z,17.96
2018-08-11T04:53:35.839Z,17.97
2018-08-11T04:54:35.991Z,17.95
2018-08-11T04:55:35.803Z,17.97
2018-08-11T04:56:36.483Z,17.97
2018-08-11T04:57:35.794Z,17.97
2018-08-11T04:58:35.789Z,17.99
2018-08-11T04:59:36.032Z,17.95
2018-08-11T05:00:35.786Z,17.96
2018-08-11T05:01:35.793Z,17.92
2018-08-11T05:02:35.804Z,17.92
2018-08-11T05:03:35.975Z,17.93
2018-08-11T05:04:35.983Z,17.88
2018-08-11T05:05:36.675Z,17.86
2018-08-11T05:06:35.813Z,17.87
2018-08-11T05:07:35.815Z,17.86
2018-08-11T05:08:35.850Z,17.88
2018-08-11T05:09:35.917Z,17.88
2018-08-11T05:10:35.949Z,17.89
2018-08-11T05:11:35.832Z,17.89
2018-08-11T05:12:35.778Z,17.81
2018-08-11T05:13:35.882Z,17.86
2018-08-11T05:14:35.810Z,17.85
2018-08-11T05:15:36.245Z,17.88
2018-08-11T05:16:35.807Z,17.9
2018-08-11T05:17:35.857Z,17.9
2018-08-11T05:18:36.187Z,17.94
2018-08-11T05:19:35.825Z,17.92
2018-08-11T05:20:35.796Z,17.93
2018-08-11T05:21:36.045Z,17.99
2018-08-11T05:22:35.782Z,17.91
2018-08-11T05:23:36.134Z,17.95
2018-08-11T05:24:35.788Z,18
2018-08-11T05:25:35.852Z,18.02
2018-08-11T05:26:35.946Z,18.07
2018-08-11T05:27:35.831Z,18.11
2018-08-11T05:28:35.981Z,18.02
2018-08-11T05:29:35.853Z,17.99
2018-08-11T05:30:35.843Z,18
2018-08-11T05:31:35.842Z,17.96
2018-08-11T05:32:35.817Z,17.99
2018-08-11T05:33:35.927Z,18.01
2018-08-11T05:34:35.832Z,18.06
2018-08-11T05:35:35.850Z,18.07
2018-08-11T05:36:35.903Z,18.08
2018-08-11T05:37:35.791Z,18.12
2018-08-11T05:38:35.822Z,18.1
2018-08-11T05:39:35.821Z,18.13
2018-08-11T05:40:35.790Z,18.11
2018-08-11T05:41:36.399Z,18.07
2018-08-11T05:42:35.814Z,18.12
2018-08-11T05:43:36.070Z,18.17
2018-08-11T05:44:35.976Z,18.18
2018-08-11T05:45:35.849Z,18.23
2018-08-11T05:46:35.828Z,18.23
2018-08-11T05:47:35.826Z,18.24
2018-08-11T05:48:35.831Z,18.21
2018-08-11T05:49:35.953Z,18.22
2018-08-11T05:50:35.866Z,18.18
2018-08-11T05:51:35.909Z,18.21
2018-08-11T05:52:35.924Z,18.25
2018-08-11T05:53:35.878Z,18.27
2018-08-11T05:54:36.030Z,18.28
2018-08-11T05:55:35.802Z,18.24
2018-08-11T05:56:35.789Z,18.26
2018-08-11T05:57:35.907Z,18.31
2018-08-11T05:58:35.787Z,18.29
2018-08-11T05:59:35.786Z,18.26
2018-08-11T06:00:35.889Z,18.29
2018-08-11T06:01:35.917Z,18.3
2018-08-11T06:02:35.769Z,18.33
2018-08-11T06:03:35.774Z,18.29
2018-08-11T06:04:35.813Z,18.34
2018-08-11T06:05:35.769Z,18.35
2018-08-11T06:06:35.795Z,18.38
2018-08-11T06:07:35.765Z,18.42
2018-08-11T06:08:35.801Z,18.4
2018-08-11T06:09:35.807Z,18.41
2018-08-11T06:10:36.765Z,18.4
2018-08-11T06:11:35.798Z,18.44
2018-08-11T06:12:35.785Z,18.4
2018-08-11T06:13:35.779Z,18.43
2018-08-11T06:14:35.798Z,18.41
2018-08-11T06:15:35.763Z,18.39
2018-08-11T06:16:35.800Z,18.39
2018-08-11T06:17:35.794Z,18.43
2018-08-11T06:18:36.003Z,18.45
2018-08-11T06:19:35.823Z,18.41
2018-08-11T06:20:35.782Z,18.4
2018-08-11T06:21:35.837Z,18.38
2018-08-11T06:22:35.818Z,18.37
2018-08-11T06:23:35.792Z,18.34
2018-08-11T06:24:36.052Z,18.35
2018-08-11T06:25:35.808Z,18.35
2018-08-11T06:26:35.808Z,18.36
2018-08-11T06:27:35.830Z,18.37
2018-08-11T06:28:35.785Z,18.37
2018-08-11T06:29:35.989Z,18.4
2018-08-11T06:30:35.848Z,18.42
2018-08-11T06:31:37.730Z,18.45
2018-08-11T06:32:35.805Z,18.42
2018-08-11T06:33:35.912Z,18.46
2018-08-11T06:34:35.978Z,18.48
2018-08-11T06:35:35.963Z,18.49
2018-08-11T06:36:35.819Z,18.51
2018-08-11T06:37:35.943Z,18.53
2018-08-11T06:38:35.893Z,18.55
2018-08-11T06:39:35.816Z,18.57
2018-08-11T06:40:36.447Z,18.59
2018-08-11T06:41:36.115Z,18.61
2018-08-11T06:42:35.897Z,18.65
2018-08-11T06:43:35.852Z,18.67
2018-08-11T06:44:35.807Z,18.71
2018-08-11T06:45:35.900Z,18.74
2018-08-11T06:46:36.188Z,18.77
2018-08-11T06:47:35.851Z,18.78
2018-08-11T06:48:35.790Z,18.77
2018-08-11T06:49:35.852Z,18.74
2018-08-11T06:50:35.805Z,18.77
2018-08-11T06:51:35.809Z,18.77
2018-08-11T06:52:36.078Z,18.79
2018-08-11T06:53:35.855Z,18.79
2018-08-11T06:54:35.870Z,18.83
2018-08-11T06:55:36.990Z,18.88
2018-08-11T06:56:35.807Z,18.89
2018-08-11T06:57:35.848Z,18.91
2018-08-11T06:58:35.932Z,18.92
2018-08-11T06:59:35.837Z,18.96
2018-08-11T07:00:35.821Z,18.97
2018-08-11T07:01:35.951Z,18.99
2018-08-11T07:02:35.794Z,19.05
2018-08-11T07:03:36.078Z,19.06
2018-08-11T07:04:35.806Z,19.1
2018-08-11T07:05:35.839Z,19.1
2018-08-11T07:06:36.594Z,19.13
2018-08-11T07:07:35.887Z,19.17
2018-08-11T07:08:35.805Z,19.22
2018-08-11T07:09:35.799Z,19.23
2018-08-11T07:10:35.984Z,19.28
2018-08-11T07:11:36.056Z,19.29
2018-08-11T07:12:35.786Z,19.29
2018-08-11T07:13:36.172Z,19.31
2018-08-11T07:14:35.804Z,19.36
2018-08-11T07:15:35.786Z,19.38
2018-08-11T07:16:35.858Z,19.42
2018-08-11T07:17:35.795Z,19.47
2018-08-11T07:18:35.810Z,19.5
2018-08-11T07:19:35.815Z,19.53
2018-08-11T07:20:35.792Z,19.52
2018-08-11T07:21:36.219Z,19.53
2018-08-11T07:22:35.814Z,19.55
2018-08-11T07:23:35.806Z,19.61
2018-08-11T07:24:35.849Z,19.66
2018-08-11T07:25:35.918Z,19.68
2018-08-11T07:26:36.952Z,19.74
2018-08-11T07:27:35.831Z,19.79
2018-08-11T07:28:35.779Z,19.79
2018-08-11T07:29:36.069Z,19.8
2018-08-11T07:30:35.815Z,19.79
2018-08-11T07:31:35.766Z,19.82
2018-08-11T07:32:35.856Z,19.78
2018-08-11T07:33:35.783Z,19.79
2018-08-11T07:34:35.825Z,19.82
2018-08-11T07:35:36.000Z,19.81
2018-08-11T07:36:36.540Z,19.81
2018-08-11T07:37:37.744Z,19.82
2018-08-11T07:38:36.124Z,19.81
2018-08-11T07:39:36.386Z,19.84
2018-08-11T07:40:37.409Z,19.82
2018-08-11T07:41:35.865Z,19.83
2018-08-11T07:42:35.823Z,19.84
2018-08-11T07:43:35.942Z,19.86
2018-08-11T07:44:35.763Z,19.91
2018-08-11T07:45:35.800Z,19.92
2018-08-11T07:46:35.785Z,19.94
2018-08-11T07:47:36.385Z,19.98
2018-08-11T07:48:36.523Z,20
2018-08-11T07:49:36.430Z,19.97
2018-08-11T07:50:35.991Z,19.95
2018-08-11T07:51:35.868Z,19.96
2018-08-11T07:52:35.832Z,19.96
2018-08-11T07:53:35.832Z,20.01
2018-08-11T07:54:35.905Z,20.03
2018-08-11T07:55:35.810Z,20.1
2018-08-11T07:56:35.833Z,20.09
2018-08-11T07:57:35.799Z,20.11
2018-08-11T07:58:35.871Z,20.14
2018-08-11T07:59:35.807Z,20.14
2018-08-11T08:00:35.969Z,20.11
2018-08-11T08:01:35.777Z,20.14
2018-08-11T08:02:35.876Z,20.16
2018-08-11T08:03:35.841Z,20.24
2018-08-11T08:04:35.930Z,20.29
2018-08-11T08:05:35.831Z,20.31
2018-08-11T08:06:35.945Z,20.35
2018-08-11T08:07:35.929Z,20.36
2018-08-11T08:08:35.789Z,20.38
2018-08-11T08:09:35.842Z,20.41
2018-08-11T08:10:35.800Z,20.39
2018-08-11T08:11:35.839Z,20.43
2018-08-11T08:12:35.975Z,20.47
2018-08-11T08:13:36.035Z,20.49
2018-08-11T08:14:35.953Z,20.55
2018-08-11T08:15:35.786Z,20.62
2018-08-11T08:16:35.804Z,20.67
2018-08-11T08:17:35.795Z,20.72
2018-08-11T08:18:35.812Z,20.75
2018-08-11T08:19:35.790Z,20.85
2018-08-11T08:20:35.856Z,20.86
2018-08-11T08:21:35.741Z,20.88
2018-08-11T08:22:36.109Z,20.95
2018-08-11T08:23:36.193Z,20.97
2018-08-11T08:24:35.933Z,21.01
2018-08-11T08:25:36.016Z,21.06
2018-08-11T08:26:37.459Z,21.13
2018-08-11T08:27:35.815Z,21.16
2018-08-11T08:28:35.772Z,21.24
2018-08-11T08:29:35.817Z,21.25
2018-08-11T08:30:35.811Z,21.33
2018-08-11T08:31:35.860Z,21.37
2018-08-11T08:32:35.802Z,21.4
2018-08-11T08:33:35.830Z,21.4
2018-08-11T08:34:35.756Z,21.47
2018-08-11T08:35:35.794Z,21.53
2018-08-11T08:36:36.197Z,21.58
2018-08-11T08:37:35.813Z,21.51
2018-08-11T08:38:35.817Z,21.54
2018-08-11T08:39:35.783Z,21.52
2018-08-11T08:40:35.765Z,21.57
2018-08-11T08:41:35.770Z,21.58
2018-08-11T08:42:35.815Z,21.54
2018-08-11T08:43:35.760Z,21.56
2018-08-11T08:44:35.777Z,21.56
2018-08-11T08:45:35.775Z,21.59
2018-08-11T08:46:35.779Z,21.67
2018-08-11T08:47:36.871Z,21.72
2018-08-11T08:48:35.785Z,21.66
2018-08-11T08:49:35.759Z,21.69
2018-08-11T08:50:35.993Z,21.76
2018-08-11T08:51:35.738Z,21.72
2018-08-11T08:52:35.768Z,21.73
2018-08-11T08:53:35.755Z,21.72
2018-08-11T08:54:35.815Z,21.64
2018-08-11T08:55:35.982Z,21.57
2018-08-11T08:56:35.948Z,21.57
2018-08-11T08:57:36.045Z,21.58
2018-08-11T08:58:35.770Z,21.6
2018-08-11T08:59:35.886Z,21.62
2018-08-11T09:00:36.202Z,21.67
2018-08-11T09:01:35.855Z,21.69
2018-08-11T09:02:35.832Z,21.73
2018-08-11T09:03:35.784Z,21.76
2018-08-11T09:04:35.785Z,21.7
2018-08-11T09:05:35.805Z,21.68
2018-08-11T09:06:35.786Z,21.66
2018-08-11T09:07:35.830Z,21.66
2018-08-11T09:08:35.863Z,21.71
2018-08-11T09:09:35.770Z,21.8
2018-08-11T09:10:35.925Z,21.85
2018-08-11T09:11:35.779Z,21.87
2018-08-11T09:12:35.917Z,21.91
2018-08-11T09:13:35.812Z,21.93
2018-08-11T09:14:35.822Z,21.95
2018-08-11T09:15:36.009Z,21.97
2018-08-11T09:16:36.094Z,22.01
2018-08-11T09:17:35.899Z,22.07
2018-08-11T09:18:35.962Z,22.12
2018-08-11T09:19:36.947Z,22.16
2018-08-11T09:20:36.556Z,22.17
2018-08-11T09:21:36.096Z,22.22
2018-08-11T09:22:35.777Z,22.26
2018-08-11T09:23:36.155Z,22.25
2018-08-11T09:24:35.958Z,22.28
2018-08-11T09:25:35.814Z,22.26
2018-08-11T09:26:35.980Z,22.22
2018-08-11T09:27:36.046Z,22.18
2018-08-11T09:28:35.948Z,22.22
2018-08-11T09:29:37.001Z,22.22
2018-08-11T09:30:36.028Z,22.22
2018-08-11T09:31:37.830Z,22.23
2018-08-11T09:32:35.887Z,22.2
2018-08-11T09:33:35.990Z,22.19
2018-08-11T09:34:35.903Z,22.27
2018-08-11T09:35:18.540Z,22.37
2018-08-11T09:36:18.296Z,22.4
2018-08-11T09:37:18.208Z,22.38
2018-08-11T09:38:18.666Z,22.45
2018-08-11T09:39:18.473Z,22.48
2018-08-11T09:40:18.543Z,22.59
2018-08-11T09:41:19.371Z,22.62
2018-08-11T09:42:18.243Z,22.65
2018-08-11T09:43:18.377Z,22.69
2018-08-11T09:44:18.466Z,22.75
2018-08-11T09:45:18.196Z,22.8
2018-08-11T09:46:18.473Z,22.83
2018-08-11T09:47:18.243Z,22.78
2018-08-11T09:48:18.198Z,22.72
2018-08-11T09:49:18.385Z,22.81
2018-08-11T09:50:18.283Z,22.83
2018-08-11T09:51:18.214Z,22.91
2018-08-11T09:52:19.085Z,22.89
2018-08-11T09:53:18.377Z,22.87
2018-08-11T09:54:18.236Z,22.96
2018-08-11T09:55:18.382Z,22.97
2018-08-11T09:56:18.176Z,22.93
2018-08-11T09:57:18.182Z,22.95
2018-08-11T09:58:18.241Z,22.97
2018-08-11T09:59:18.177Z,23.08
2018-08-11T10:00:18.214Z,23.13
2018-08-11T10:01:18.369Z,23.17
2018-08-11T10:02:18.196Z,23.22
2018-08-11T10:03:18.170Z,23.27
2018-08-11T10:04:18.299Z,23.18
2018-08-11T10:05:18.171Z,23.1
2018-08-11T10:06:18.165Z,23.07
2018-08-11T10:07:18.348Z,23.04
2018-08-11T10:08:18.307Z,23.02
2018-08-11T10:09:18.231Z,23.03
2018-08-11T10:10:18.313Z,23.03
2018-08-11T10:11:18.176Z,23.04
2018-08-11T10:12:18.358Z,23.1
2018-08-11T10:13:18.683Z,23.09
2018-08-11T10:14:18.188Z,23.03
2018-08-11T10:15:18.371Z,23.1
2018-08-11T10:16:18.405Z,23.19
2018-08-11T10:17:18.200Z,23.27
2018-08-11T10:18:18.267Z,23.29
2018-08-11T10:19:18.260Z,23.34
2018-08-11T10:20:18.816Z,23.29
2018-08-11T10:21:18.197Z,23.31
2018-08-11T10:22:18.362Z,23.27
2018-08-11T10:23:18.168Z,23.32
2018-08-11T10:24:18.260Z,23.25
2018-08-11T10:25:18.430Z,23.27
2018-08-11T10:26:18.185Z,23.29
2018-08-11T10:27:18.136Z,23.24
2018-08-11T10:28:18.358Z,23.16
2018-08-11T10:29:18.179Z,23.11
2018-08-11T10:30:18.571Z,23.09
2018-08-11T10:31:18.487Z,23.04
2018-08-11T10:32:18.131Z,22.96
2018-08-11T10:33:18.381Z,22.95
2018-08-11T10:34:18.292Z,22.9
2018-08-11T10:35:18.258Z,22.89
2018-08-11T10:36:18.167Z,22.88
2018-08-11T10:37:19.356Z,22.87
2018-08-11T10:38:18.480Z,22.86
2018-08-11T10:39:18.150Z,22.89
2018-08-11T10:40:19.331Z,22.87
2018-08-11T10:41:18.233Z,22.88
2018-08-11T10:42:18.162Z,22.88
2018-08-11T10:43:18.254Z,22.89
2018-08-11T10:44:18.251Z,22.9
2018-08-11T10:45:18.453Z,22.95
2018-08-11T10:46:18.514Z,22.92
2018-08-11T10:47:18.148Z,22.92
2018-08-11T10:48:18.486Z,22.96
2018-08-11T10:49:18.288Z,22.95
2018-08-11T10:50:18.179Z,22.96
2018-08-11T10:51:18.423Z,22.96
2018-08-11T10:52:18.239Z,22.98
2018-08-11T10:53:18.146Z,23.02
2018-08-11T10:54:18.207Z,23.07
2018-08-11T10:55:18.543Z,23.1
2018-08-11T10:56:18.189Z,23.21
2018-08-11T10:57:18.217Z,23.24
2018-08-11T10:58:18.864Z,23.36
2018-08-11T10:59:18.147Z,23.44
2018-08-11T11:00:18.179Z,23.55
2018-08-11T11:01:18.938Z,23.64
2018-08-11T11:02:18.390Z,23.69
2018-08-11T11:03:18.176Z,23.76
2018-08-11T11:04:18.189Z,23.74
2018-08-11T11:05:18.145Z,23.79
2018-08-11T11:06:18.166Z,23.87
2018-08-11T11:07:18.326Z,23.91
2018-08-11T11:08:18.532Z,23.91
2018-08-11T11:09:18.140Z,23.95
2018-08-11T11:10:18.269Z,23.9
2018-08-11T11:11:18.162Z,23.96
2018-08-11T11:12:18.151Z,23.86
2018-08-11T11:13:18.367Z,23.78
2018-08-11T11:14:18.665Z,23.74
2018-08-11T11:15:18.273Z,23.7
2018-08-11T11:16:18.135Z,23.7
2018-08-11T11:17:18.214Z,23.56
2018-08-11T11:18:18.146Z,23.57
2018-08-11T11:19:18.317Z,23.5
2018-08-11T11:20:18.407Z,23.42
2018-08-11T11:21:18.150Z,23.37
2018-08-11T11:22:18.222Z,23.23
2018-08-11T11:23:18.185Z,23.22
2018-08-11T11:24:18.153Z,23.16
2018-08-11T11:25:18.257Z,23.14
2018-08-11T11:26:18.419Z,23.15
2018-08-11T11:27:18.195Z,23.18
2018-08-11T11:28:18.267Z,23.25
2018-08-11T11:29:18.460Z,23.37
2018-08-11T11:30:18.174Z,23.44
2018-08-11T11:31:19.353Z,23.49
2018-08-11T11:32:18.154Z,23.59
2018-08-11T11:33:18.141Z,23.71
2018-08-11T11:34:18.199Z,23.74
2018-08-11T11:35:18.117Z,23.85
2018-08-11T11:36:18.214Z,23.92
2018-08-11T11:37:19.974Z,23.97
2018-08-11T11:38:18.176Z,23.89
2018-08-11T11:39:18.231Z,23.86
2018-08-11T11:40:18.259Z,24
2018-08-11T11:41:18.161Z,24.05
2018-08-11T11:42:18.203Z,24.06
2018-08-11T11:43:18.740Z,24.07
2018-08-11T11:44:18.126Z,24.1
2018-08-11T11:45:18.249Z,24.19
2018-08-11T11:46:18.300Z,24.22
2018-08-11T11:47:18.137Z,24.3
2018-08-11T11:48:18.131Z,24.42
2018-08-11T11:49:18.305Z,24.48
2018-08-11T11:50:18.135Z,24.48
2018-08-11T11:51:18.169Z,24.51
2018-08-11T11:52:18.562Z,24.49
2018-08-11T11:53:18.176Z,24.57
2018-08-11T11:54:18.182Z,24.63
2018-08-11T11:55:18.262Z,24.68
2018-08-11T11:56:18.149Z,24.61
2018-08-11T11:57:18.120Z,24.68
2018-08-11T11:58:18.275Z,24.69
2018-08-11T11:59:18.344Z,24.72
2018-08-11T12:00:18.165Z,24.68
2018-08-11T12:01:18.317Z,24.67
2018-08-11T12:02:18.201Z,24.73
2018-08-11T12:03:18.145Z,24.79
2018-08-11T12:04:18.204Z,24.77
2018-08-11T12:05:18.239Z,24.84
2018-08-11T12:06:18.156Z,24.81
2018-08-11T12:07:18.336Z,24.78
2018-08-11T12:08:18.206Z,24.82
2018-08-11T12:09:18.137Z,24.92
2018-08-11T12:10:18.366Z,24.85
2018-08-11T12:11:18.116Z,24.83
2018-08-11T12:12:18.110Z,24.79
2018-08-11T12:13:18.305Z,24.8
2018-08-11T12:14:18.157Z,24.86
2018-08-11T12:15:18.111Z,24.98
2018-08-11T12:16:18.185Z,25.02
2018-08-11T12:17:18.390Z,25.05
2018-08-11T12:18:18.218Z,24.98
2018-08-11T12:19:18.714Z,24.97
2018-08-11T12:20:18.157Z,25.04
2018-08-11T12:21:18.161Z,25.13
2018-08-11T12:22:18.225Z,25.11
2018-08-11T12:23:18.137Z,24.96
2018-08-11T12:24:18.103Z,24.83
2018-08-11T12:25:18.189Z,24.76
2018-08-11T12:26:18.145Z,24.7
2018-08-11T12:27:18.123Z,24.72
2018-08-11T12:28:18.286Z,24.78
2018-08-11T12:29:18.130Z,24.8
2018-08-11T12:30:18.116Z,24.84
2018-08-11T12:31:19.775Z,24.91
2018-08-11T12:32:18.183Z,24.98
2018-08-11T12:33:18.125Z,25.06
2018-08-11T12:34:18.312Z,25.13
2018-08-11T12:35:18.135Z,25.19
2018-08-11T12:36:18.161Z,25.13
2018-08-11T12:37:18.237Z,24.95
2018-08-11T12:38:18.157Z,24.85
2018-08-11T12:39:18.107Z,24.92
2018-08-11T12:40:18.266Z,25.02
2018-08-11T12:41:18.117Z,25.06
2018-08-11T12:42:18.107Z,25.11
2018-08-11T12:43:18.315Z,25.17
2018-08-11T12:44:18.167Z,25.26
2018-08-11T12:45:18.166Z,25.33
2018-08-11T12:46:18.305Z,25.27
2018-08-11T12:47:18.170Z,25.33
2018-08-11T12:48:18.151Z,25.42
2018-08-11T12:49:18.368Z,25.5
2018-08-11T12:50:18.133Z,25.56
2018-08-11T12:51:18.168Z,25.61
2018-08-11T12:52:18.242Z,25.64
2018-08-11T12:53:18.582Z,25.54
2018-08-11T12:54:18.151Z,25.52
2018-08-11T12:55:18.228Z,25.53